• Join FlightAware (Why Join?)
  • Login
  • US Flag 
06:04AM EDT


 

Airport Tracker/Info


-or-


 

Live Flight TrackerFlight Track Log ✈ FLG3729 ✈ 09-Aug-2013 ✈ KALB - KDTW

Flight Track Log - Related Links

Times and Time Zones

All times are in EDT time to prevent confusion due to time zone crossing. See the FLG3729 flight status page for this flight to view local times or setup timezone preferences in your user account.

Time Position Orientation Groundspeed Altitude Reporting Facility
EDT Latitude Longitude Course Direction KTS MPH feet Rate Location/Type
06:05AM 42.7319 -73.8081 260° West 134 154 1,400  Level Boston Center
06:06AM 42.7228 -73.8786 260° West 219 252 3,800 2,220 Climbing Boston Center
06:07AM 42.7508 -73.9583 296° West 239 275 6,000 2,400 Climbing Boston Center
06:08AM 42.8083 -74.0250 320° Northwest 255 293 8,700 2,280 Climbing Boston Center
06:09AM 42.8656 -74.0944 318° Northwest 261 300 10,600 1,380 Climbing Boston Center
06:10AM 42.9208 -74.1639 317° Northwest 293 337 11,600 1,200 Climbing Boston Center
06:11AM 42.9967 -74.2569 318° Northwest 324 373 13,000 1,320 Climbing Boston Center
06:13AM 43.0844 -74.4897 297° West 345 397 15,700 1,320 Climbing Boston Center
06:14AM 43.1178 -74.5989 293° West 352 405 17,100 1,320 Climbing Boston Center
06:15AM 43.1528 -74.7256 291° West 352 405 18,400 1,200 Climbing Boston Center
06:16AM 43.1858 -74.8464 291° West 352 405 19,600 1,080 Climbing Boston Center
06:17AM 43.2206 -74.9703 291° West 352 405 20,700 900 Climbing Boston Center
06:18AM 43.2553 -75.0942 291° West 352 405 21,500 660 Climbing Boston Center
06:19AM 43.2936 -75.2386 290° West 352 405 22,000 660 Climbing Boston Center
06:20AM 43.3317 -75.3775 291° West 365 420 22,800 660 Climbing Boston Center
06:21AM 43.3678 -75.5078 291° West 373 429 23,400 600 Climbing Boston Center
06:22AM 43.4058 -75.6439 291° West 373 429 24,000 600 Climbing Boston Center
06:23AM 43.4417 -75.7775 290° West 373 429 24,600 600 Climbing Boston Center
06:24AM 43.4772 -75.9139 290° West 373 429 25,200 600 Climbing Boston Center
06:25AM 43.5025 -76.1381 279° West 375 432 26,200 600 Climbing Cleveland Center
06:26AM 43.5000 -76.2000 267° West 370 426 26,700 540 Climbing Toronto Center
06:27AM 43.4833 -76.3667 262° West 370 426 27,200 480 Climbing Toronto Center
06:28AM 43.4833 -76.4833 270° West 360 414 27,700 360 Climbing Toronto Center
06:29AM 43.4833 -76.6500 270° West 360 414 28,000 120 Climbing Toronto Center
06:30AM 43.5019 -76.8339 278° West 364 419 28,000  Level Cleveland Center
06:31AM 43.5025 -76.9769 270° West 369 425 28,000  Level Cleveland Center
06:32AM 43.4733 -77.1189 254° West 369 425 28,000  Level Cleveland Center
06:33AM 43.4272 -77.2472 244° Southwest 374 430 28,000  Level Cleveland Center
06:34AM 43.3828 -77.3783 245° Southwest 379 436 28,000  Level Cleveland Center
06:35AM 43.3364 -77.5119 245° Southwest 385 443 28,000  Level Cleveland Center
06:36AM 43.2897 -77.6397 243° Southwest 385 443 28,000  Level Cleveland Center
06:37AM 43.2453 -77.7731 245° Southwest 385 443 28,000  Level Cleveland Center
06:38AM 43.1983 -77.9033 244° Southwest 385 443 28,000  Level Cleveland Center
06:39AM 43.1511 -78.0364 244° Southwest 385 443 28,000  Level Cleveland Center
06:40AM 43.1022 -78.1747 244° Southwest 390 449 28,000  Level Cleveland Center
06:41AM 43.0528 -78.3075 243° Southwest 390 449 28,000  Level Cleveland Center
06:42AM 43.0031 -78.4428 243° Southwest 390 449 28,000  Level Cleveland Center
06:43AM 42.9556 -78.5778 244° Southwest 390 449 28,000  Level Cleveland Center
06:44AM 42.9264 -78.7119 254° West 405 466 28,000  Level Cleveland Center
06:45AM 42.9122 -78.8597 263° West 405 466 28,000  Level Cleveland Center
06:46AM 42.8978 -79.0131 263° West 406 467 28,000  Level Cleveland Center
06:47AM 42.8850 -79.1636 263° West 406 467 28,000  Level Cleveland Center
06:48AM 42.8700 -79.3142 262° West 406 467 28,000  Level Cleveland Center
06:49AM 42.8569 -79.4644 263° West 406 467 28,000  Level Cleveland Center
06:50AM 42.8397 -79.6150 261° West 406 467 28,000  Level Cleveland Center
06:51AM 42.8261 -79.7650 263° West 406 467 28,000  Level Cleveland Center
06:52AM 42.8125 -79.9153 263° West 406 467 28,000  Level Cleveland Center
06:53AM 42.7906 -80.0853 260° West 413 475 28,000  Level Cleveland Center
06:54AM 42.7764 -80.2381 263° West 413 475 28,000  Level Cleveland Center
06:55AM 42.7603 -80.3881 262° West 408 470 28,000  Level Cleveland Center
06:56AM 42.7436 -80.5381 261° West 408 470 28,000 -60 Level Cleveland Center
06:57AM 42.7269 -80.6878 261° West 408 470 27,900 -540 Descending Cleveland Center
06:58AM 42.7122 -80.8206 261° West 413 475 27,000 -960 Descending Cleveland Center
06:59AM 42.6972 -80.9672 262° West 402 463 26,000 -1,020 Descending Cleveland Center
07:00AM 42.6819 -81.1114 262° West 387 445 25,000 -1,020 Descending Cleveland Center
07:01AM 42.6644 -81.2525 260° West 387 445 24,000 -540 Descending Cleveland Center
07:02AM 42.6511 -81.3906 263° West 387 445 24,000  Level Cleveland Center
07:03AM 42.6333 -81.5286 260° West 382 440 24,000  Level Cleveland Center
07:04AM 42.6156 -81.6694 260° West 382 440 24,000  Level Cleveland Center
07:05AM 42.5972 -81.8242 261° West 382 440 24,000 -1,020 Level Cleveland Center
07:06AM 42.5769 -81.9647 259° West 382 440 22,000 -2,220 Descending Cleveland Center
07:07AM 42.5628 -82.0997 262° West 377 434 19,600 -2,400 Descending Cleveland Center
07:08AM 42.5508 -82.2067 261° West 359 413 17,700 -2,400 Descending Cleveland Center
07:09AM 42.5367 -82.3217 261° West 356 410 15,700 -2,460 Descending Cleveland Center
07:10AM 42.5222 -82.4425 261° West 324 373 13,300 -1,800 Descending Cleveland Center
07:11AM 42.4994 -82.5686 256° West 313 360 11,900 -660 Descending Cleveland Center
07:12AM 42.4578 -82.6828 244° Southwest 328 377 12,000  Climbing Cleveland Center
07:13AM 42.4200 -82.7967 246° West 335 386 11,900  Descending Cleveland Center
07:14AM 42.3761 -82.9133 243° Southwest 331 381 12,000  Climbing Cleveland Center
07:15AM 42.3364 -83.0214 244° Southwest 320 368 11,900 -180 Descending Cleveland Center
07:16AM 42.3069 -83.1242 249° West 322 371 11,700 -540 Descending Cleveland Center
07:17AM 42.2958 -83.2472 263° West 326 375 10,900 -420 Descending Cleveland Center
07:18AM 42.2808 -83.3589 260° West 260 299 10,900 -180 Level Cleveland Center
07:19AM 42.2478 -83.4275 237° Southwest 231 266 10,600 -900 Descending Cleveland Center
07:20AM 42.1900 -83.4922 220° Southwest 227 261 9,000 -1,500 Descending Cleveland Center
07:21AM 42.1364 -83.5431 215° Southwest 225 259 7,500 -1,560 Descending Cleveland Center
07:22AM 42.0781 -83.5486 184° South 253 291 5,900 -1,380 Descending Cleveland Center
07:23AM 42.0778 -83.4703 90° East 220 253 4,800 -1,260 Descending Cleveland Center
07:24AM 42.1206 -83.4303 35° Northeast 162 186 3,400 -1,500 Descending Cleveland Center
07:25AM 42.1525 -83.4092 26° Northeast 129 148 1,900 -1,200 Descending Cleveland Center
07:26AM 42.1883 -83.3828 29° Northeast 134 154 1,000 -840 Descending Cleveland Center